sensor_id;sensor_type;location;lat;lon;timestamp;temperature;humidity
36186;DHT22;22228;53.222;7.446;2023-05-10T00:01:44;13.70;99.90
36186;DHT22;22228;53.222;7.446;2023-05-10T00:04:05;13.70;99.90
36186;DHT22;22228;53.222;7.446;2023-05-10T00:06:35;13.70;99.90
36186;DHT22;22228;53.222;7.446;2023-05-10T00:08:56;13.60;99.90
36186;DHT22;22228;53.222;7.446;2023-05-10T00:11:18;13.70;99.90
36186;DHT22;22228;53.222;7.446;2023-05-10T00:13:40;13.60;99.90
36186;DHT22;22228;53.222;7.446;2023-05-10T03:01:38;12.50;99.90
36186;DHT22;22228;53.222;7.446;2023-05-10T03:04:04;12.50;99.90
36186;DHT22;22228;53.222;7.446;2023-05-10T03:06:29;12.50;99.90
36186;DHT22;22228;53.222;7.446;2023-05-10T03:08:54;12.50;99.90
36186;DHT22;22228;53.222;7.446;2023-05-10T03:11:25;12.50;99.90
36186;DHT22;22228;53.222;7.446;2023-05-10T03:14:01;12.40;99.90
36186;DHT22;22228;53.222;7.446;2023-05-10T03:16:28;12.40;99.90
36186;DHT22;22228;53.222;7.446;2023-05-10T03:18:58;12.40;99.90
36186;DHT22;22228;53.222;7.446;2023-05-10T03:21:29;12.40;99.90
36186;DHT22;22228;53.222;7.446;2023-05-10T03:23:58;12.40;99.90
36186;DHT22;22228;53.222;7.446;2023-05-10T03:26:24;12.50;99.90
36186;DHT22;22228;53.222;7.446;2023-05-10T03:28:57;12.40;99.90
36186;DHT22;22228;53.222;7.446;2023-05-10T03:31:19;12.30;99.90
36186;DHT22;22228;53.222;7.446;2023-05-10T03:33:46;12.30;99.90
36186;DHT22;22228;53.222;7.446;2023-05-10T03:36:13;12.30;99.90
36186;DHT22;22228;53.222;7.446;2023-05-10T03:38:34;12.40;99.90
36186;DHT22;22228;53.222;7.446;2023-05-10T03:40:56;12.40;99.90
36186;DHT22;22228;53.222;7.446;2023-05-10T03:43:17;12.40;99.90
36186;DHT22;22228;53.222;7.446;2023-05-10T03:45:37;12.30;99.90
36186;DHT22;22228;53.222;7.446;2023-05-10T03:48:27;12.40;99.90
36186;DHT22;22228;53.222;7.446;2023-05-10T03:50:49;12.30;99.90
36186;DHT22;22228;53.222;7.446;2023-05-10T03:53:12;12.30;99.90
36186;DHT22;22228;53.222;7.446;2023-05-10T03:55:33;12.30;99.90
36186;DHT22;22228;53.222;7.446;2023-05-10T03:57:55;12.30;99.90
36186;DHT22;22228;53.222;7.446;2023-05-10T04:00:17;12.30;99.90
36186;DHT22;22228;53.222;7.446;2023-05-10T04:03:04;12.30;99.90
36186;DHT22;22228;53.222;7.446;2023-05-10T04:05:25;12.30;99.90
36186;DHT22;22228;53.222;7.446;2023-05-10T04:07:46;12.30;99.90
36186;DHT22;22228;53.222;7.446;2023-05-10T04:10:11;12.30;99.90
36186;DHT22;22228;53.222;7.446;2023-05-10T04:12:56;12.30;99.90
36186;DHT22;22228;53.222;7.446;2023-05-10T04:15:22;12.40;99.90
36186;DHT22;22228;53.222;7.446;2023-05-10T04:17:42;12.30;99.90
36186;DHT22;22228;53.222;7.446;2023-05-10T04:20:13;12.40;99.90
36186;DHT22;22228;53.222;7.446;2023-05-10T04:22:34;12.30;99.90
36186;DHT22;22228;53.222;7.446;2023-05-10T04:25:01;12.30;99.90
36186;DHT22;22228;53.222;7.446;2023-05-10T04:27:27;12.30;99.90
36186;DHT22;22228;53.222;7.446;2023-05-10T04:29:50;12.40;99.90
36186;DHT22;22228;53.222;7.446;2023-05-10T04:32:34;12.40;99.90
36186;DHT22;22228;53.222;7.446;2023-05-10T04:34:59;12.40;99.90
36186;DHT22;22228;53.222;7.446;2023-05-10T04:37:23;12.40;99.90
36186;DHT22;22228;53.222;7.446;2023-05-10T04:39:43;12.30;99.90
36186;DHT22;22228;53.222;7.446;2023-05-10T04:42:33;12.30;99.90
36186;DHT22;22228;53.222;7.446;2023-05-10T04:45:00;12.30;99.90
36186;DHT22;22228;53.222;7.446;2023-05-10T04:47:21;12.30;99.90
36186;DHT22;22228;53.222;7.446;2023-05-10T04:50:10;12.30;99.90
36186;DHT22;22228;53.222;7.446;2023-05-10T04:52:30;12.30;99.90
36186;DHT22;22228;53.222;7.446;2023-05-10T04:54:51;12.30;99.90
36186;DHT22;22228;53.222;7.446;2023-05-10T04:57:11;12.30;99.90
36186;DHT22;22228;53.222;7.446;2023-05-10T04:59:35;12.30;99.90
36186;DHT22;22228;53.222;7.446;2023-05-10T05:01:57;12.30;99.90
36186;DHT22;22228;53.222;7.446;2023-05-10T05:04:49;12.30;99.90
36186;DHT22;22228;53.222;7.446;2023-05-10T05:07:11;12.30;99.90
36186;DHT22;22228;53.222;7.446;2023-05-10T05:09:31;12.30;99.90
36186;DHT22;22228;53.222;7.446;2023-05-10T05:12:21;12.30;99.90
36186;DHT22;22228;53.222;7.446;2023-05-10T05:14:43;12.40;99.90
36186;DHT22;22228;53.222;7.446;2023-05-10T05:17:05;12.40;99.90
36186;DHT22;22228;53.222;7.446;2023-05-10T05:19:25;12.40;99.90
36186;DHT22;22228;53.222;7.446;2023-05-10T05:21:47;12.40;99.90
36186;DHT22;22228;53.222;7.446;2023-05-10T05:24:35;12.40;99.90
36186;DHT22;22228;53.222;7.446;2023-05-10T05:27:03;12.40;99.90
36186;DHT22;22228;53.222;7.446;2023-05-10T05:29:24;12.50;99.90
36186;DHT22;22228;53.222;7.446;2023-05-10T05:31:52;12.50;99.90
36186;DHT22;22228;53.222;7.446;2023-05-10T05:34:13;12.50;99.90
36186;DHT22;22228;53.222;7.446;2023-05-10T05:36:35;12.50;99.90
36186;DHT22;22228;53.222;7.446;2023-05-10T05:39:20;12.50;99.90
36186;DHT22;22228;53.222;7.446;2023-05-10T05:41:42;12.60;99.90
36186;DHT22;22228;53.222;7.446;2023-05-10T05:44:29;12.60;99.90
36186;DHT22;22228;53.222;7.446;2023-05-10T05:46:55;12.60;99.90
36186;DHT22;22228;53.222;7.446;2023-05-10T05:49:16;12.70;99.90
36186;DHT22;22228;53.222;7.446;2023-05-10T05:51:46;12.70;99.90
36186;DHT22;22228;53.222;7.446;2023-05-10T05:54:08;12.70;99.90
36186;DHT22;22228;53.222;7.446;2023-05-10T05:56:55;12.70;99.90
36186;DHT22;22228;53.222;7.446;2023-05-10T05:59:16;12.70;99.90
36186;DHT22;22228;53.222;7.446;2023-05-10T06:01:42;12.60;99.90
36186;DHT22;22228;53.222;7.446;2023-05-10T06:04:29;12.60;99.90
36186;DHT22;22228;53.222;7.446;2023-05-10T06:06:50;12.70;99.90
36186;DHT22;22228;53.222;7.446;2023-05-10T06:09:11;12.60;99.90
36186;DHT22;22228;53.222;7.446;2023-05-10T06:11:58;12.70;99.90
36186;DHT22;22228;53.222;7.446;2023-05-10T06:14:20;12.60;99.90
36186;DHT22;22228;53.222;7.446;2023-05-10T06:16:43;12.60;99.90
36186;DHT22;22228;53.222;7.446;2023-05-10T06:19:03;12.60;99.90
36186;DHT22;22228;53.222;7.446;2023-05-10T06:21:27;12.60;99.90
36186;DHT22;22228;53.222;7.446;2023-05-10T06:23:48;12.60;99.90
36186;DHT22;22228;53.222;7.446;2023-05-10T06:26:09;12.60;99.90
36186;DHT22;22228;53.222;7.446;2023-05-10T06:28:29;12.70;99.90
36186;DHT22;22228;53.222;7.446;2023-05-10T06:31:15;12.70;99.90
36186;DHT22;22228;53.222;7.446;2023-05-10T06:33:36;12.70;99.90
36186;DHT22;22228;53.222;7.446;2023-05-10T06:35:58;12.70;99.90
36186;DHT22;22228;53.222;7.446;2023-05-10T06:38:20;12.80;99.90
36186;DHT22;22228;53.222;7.446;2023-05-10T06:40:41;12.80;99.90
36186;DHT22;22228;53.222;7.446;2023-05-10T06:43:02;12.80;99.90
36186;DHT22;22228;53.222;7.446;2023-05-10T06:45:24;12.80;99.90
36186;DHT22;22228;53.222;7.446;2023-05-10T06:47:44;12.90;99.90
36186;DHT22;22228;53.222;7.446;2023-05-10T06:50:32;12.90;99.90
36186;DHT22;22228;53.222;7.446;2023-05-10T06:52:54;12.80;99.90
36186;DHT22;22228;53.222;7.446;2023-05-10T06:55:42;12.80;99.90
36186;DHT22;22228;53.222;7.446;2023-05-10T06:58:03;12.80;99.90
36186;DHT22;22228;53.222;7.446;2023-05-10T07:00:25;12.80;99.90
36186;DHT22;22228;53.222;7.446;2023-05-10T07:02:53;12.80;99.90
36186;DHT22;22228;53.222;7.446;2023-05-10T07:05:21;12.80;99.90
36186;DHT22;22228;53.222;7.446;2023-05-10T07:07:42;12.80;99.90
36186;DHT22;22228;53.222;7.446;2023-05-10T07:10:03;12.80;99.90
36186;DHT22;22228;53.222;7.446;2023-05-10T07:12:26;12.80;99.90
36186;DHT22;22228;53.222;7.446;2023-05-10T07:15:13;12.80;99.90
36186;DHT22;22228;53.222;7.446;2023-05-10T07:17:42;12.80;99.90
36186;DHT22;22228;53.222;7.446;2023-05-10T07:20:30;12.80;99.90
36186;DHT22;22228;53.222;7.446;2023-05-10T07:22:50;12.80;99.90
36186;DHT22;22228;53.222;7.446;2023-05-10T07:25:35;12.80;99.90
36186;DHT22;22228;53.222;7.446;2023-05-10T07:27:58;12.80;99.90
36186;DHT22;22228;53.222;7.446;2023-05-10T07:30:22;12.80;99.90
36186;DHT22;22228;53.222;7.446;2023-05-10T07:32:42;12.80;99.90
36186;DHT22;22228;53.222;7.446;2023-05-10T07:35:03;12.80;99.90
36186;DHT22;22228;53.222;7.446;2023-05-10T07:37:54;12.80;99.90
36186;DHT22;22228;53.222;7.446;2023-05-10T07:40:15;12.90;99.90
36186;DHT22;22228;53.222;7.446;2023-05-10T07:42:37;12.90;99.90
36186;DHT22;22228;53.222;7.446;2023-05-10T07:44:59;12.90;99.90
36186;DHT22;22228;53.222;7.446;2023-05-10T07:47:20;12.90;99.90
36186;DHT22;22228;53.222;7.446;2023-05-10T07:50:10;12.90;99.90
36186;DHT22;22228;53.222;7.446;2023-05-10T07:52:33;12.80;99.90
36186;DHT22;22228;53.222;7.446;2023-05-10T07:55:19;12.80;99.90
36186;DHT22;22228;53.222;7.446;2023-05-10T07:57:42;12.90;99.90
36186;DHT22;22228;53.222;7.446;2023-05-10T08:00:04;12.80;99.90
36186;DHT22;22228;53.222;7.446;2023-05-10T08:02:49;12.80;99.90
36186;DHT22;22228;53.222;7.446;2023-05-10T08:05:36;12.90;99.90
36186;DHT22;22228;53.222;7.446;2023-05-10T08:08:21;12.90;99.90
36186;DHT22;22228;53.222;7.446;2023-05-10T08:11:13;13.00;99.90
36186;DHT22;22228;53.222;7.446;2023-05-10T08:13:37;13.00;99.90
36186;DHT22;22228;53.222;7.446;2023-05-10T08:16:00;13.00;99.90
36186;DHT22;22228;53.222;7.446;2023-05-10T08:18:50;13.00;99.90
36186;DHT22;22228;53.222;7.446;2023-05-10T08:21:15;13.00;99.90
36186;DHT22;22228;53.222;7.446;2023-05-10T08:23:35;13.00;99.90
36186;DHT22;22228;53.222;7.446;2023-05-10T08:26:22;13.00;99.90
36186;DHT22;22228;53.222;7.446;2023-05-10T08:28:42;13.00;99.90
36186;DHT22;22228;53.222;7.446;2023-05-10T08:31:05;13.10;99.90
36186;DHT22;22228;53.222;7.446;2023-05-10T08:33:26;13.00;99.90
36186;DHT22;22228;53.222;7.446;2023-05-10T08:35:46;13.00;99.90
36186;DHT22;22228;53.222;7.446;2023-05-10T08:38:36;13.00;99.90
36186;DHT22;22228;53.222;7.446;2023-05-10T08:41:05;13.10;99.90
36186;DHT22;22228;53.222;7.446;2023-05-10T08:43:50;13.00;99.90
36186;DHT22;22228;53.222;7.446;2023-05-10T08:46:37;13.00;99.90
36186;DHT22;22228;53.222;7.446;2023-05-10T08:49:24;12.90;99.90
36186;DHT22;22228;53.222;7.446;2023-05-10T08:51:50;12.80;99.90
36186;DHT22;22228;53.222;7.446;2023-05-10T08:54:37;12.80;99.90
36186;DHT22;22228;53.222;7.446;2023-05-10T08:56:59;12.70;99.90
36186;DHT22;22228;53.222;7.446;2023-05-10T08:59:29;12.70;99.90
36186;DHT22;22228;53.222;7.446;2023-05-10T09:01:54;12.70;99.90
36186;DHT22;22228;53.222;7.446;2023-05-10T09:04:17;12.80;99.90
36186;DHT22;22228;53.222;7.446;2023-05-10T09:06:48;12.80;99.90
36186;DHT22;22228;53.222;7.446;2023-05-10T09:09:10;12.90;99.90
36186;DHT22;22228;53.222;7.446;2023-05-10T09:11:31;12.90;99.90
36186;DHT22;22228;53.222;7.446;2023-05-10T09:14:21;12.90;99.90
36186;DHT22;22228;53.222;7.446;2023-05-10T09:16:44;12.90;99.90
36186;DHT22;22228;53.222;7.446;2023-05-10T09:19:07;12.90;99.90
36186;DHT22;22228;53.222;7.446;2023-05-10T09:21:54;12.80;99.90
36186;DHT22;22228;53.222;7.446;2023-05-10T09:24:42;12.80;99.90
36186;DHT22;22228;53.222;7.446;2023-05-10T09:27:04;12.80;99.90
36186;DHT22;22228;53.222;7.446;2023-05-10T09:29:51;12.80;99.90
36186;DHT22;22228;53.222;7.446;2023-05-10T09:32:20;12.80;99.90
36186;DHT22;22228;53.222;7.446;2023-05-10T09:35:10;12.80;99.90
36186;DHT22;22228;53.222;7.446;2023-05-10T09:37:33;12.80;99.90
36186;DHT22;22228;53.222;7.446;2023-05-10T09:39:54;12.70;99.90
36186;DHT22;22228;53.222;7.446;2023-05-10T09:42:18;12.80;99.90
36186;DHT22;22228;53.222;7.446;2023-05-10T09:45:04;12.70;99.90
36186;DHT22;22228;53.222;7.446;2023-05-10T09:47:32;12.70;99.90
36186;DHT22;22228;53.222;7.446;2023-05-10T09:50:00;12.80;99.90
36186;DHT22;22228;53.222;7.446;2023-05-10T09:52:25;12.70;99.90
36186;DHT22;22228;53.222;7.446;2023-05-10T09:54:52;12.70;99.90
36186;DHT22;22228;53.222;7.446;2023-05-10T09:57:42;12.70;99.90
36186;DHT22;22228;53.222;7.446;2023-05-10T10:00:03;12.70;99.90
36186;DHT22;22228;53.222;7.446;2023-05-10T10:02:55;12.70;99.90
36186;DHT22;22228;53.222;7.446;2023-05-10T10:05:20;12.70;99.90
36186;DHT22;22228;53.222;7.446;2023-05-10T10:07:45;12.70;99.90
36186;DHT22;22228;53.222;7.446;2023-05-10T10:10:07;12.70;99.90
36186;DHT22;22228;53.222;7.446;2023-05-10T10:12:31;12.80;99.90
36186;DHT22;22228;53.222;7.446;2023-05-10T10:14:53;12.80;99.90
36186;DHT22;22228;53.222;7.446;2023-05-10T10:17:46;12.80;99.90
36186;DHT22;22228;53.222;7.446;2023-05-10T10:20:10;12.70;99.90
36186;DHT22;22228;53.222;7.446;2023-05-10T10:23:02;12.70;99.90
36186;DHT22;22228;53.222;7.446;2023-05-10T10:25:25;12.80;99.90
36186;DHT22;22228;53.222;7.446;2023-05-10T10:27:59;12.80;99.90
36186;DHT22;22228;53.222;7.446;2023-05-10T10:30:27;12.80;99.90
36186;DHT22;22228;53.222;7.446;2023-05-10T10:33:01;12.90;99.90
36186;DHT22;22228;53.222;7.446;2023-05-10T10:35:28;12.90;99.90
36186;DHT22;22228;53.222;7.446;2023-05-10T10:37:51;13.00;99.90
36186;DHT22;22228;53.222;7.446;2023-05-10T10:40:24;13.00;99.90
36186;DHT22;22228;53.222;7.446;2023-05-10T10:42:47;13.00;99.90
36186;DHT22;22228;53.222;7.446;2023-05-10T10:45:11;13.10;99.90
36186;DHT22;22228;53.222;7.446;2023-05-10T10:48:20;13.10;99.90
36186;DHT22;22228;53.222;7.446;2023-05-10T10:51:13;13.20;99.90
36186;DHT22;22228;53.222;7.446;2023-05-10T10:54:09;13.30;99.90
36186;DHT22;22228;53.222;7.446;2023-05-10T10:57:12;13.40;99.90
36186;DHT22;22228;53.222;7.446;2023-05-10T10:59:34;13.50;99.90
36186;DHT22;22228;53.222;7.446;2023-05-10T11:01:54;13.50;99.90
36186;DHT22;22228;53.222;7.446;2023-05-10T11:04:23;13.50;99.90
36186;DHT22;22228;53.222;7.446;2023-05-10T11:06:44;13.60;99.90
36186;DHT22;22228;53.222;7.446;2023-05-10T11:09:06;13.80;99.90
36186;DHT22;22228;53.222;7.446;2023-05-10T11:11:27;13.80;99.90
36186;DHT22;22228;53.222;7.446;2023-05-10T11:13:49;13.60;99.90
36186;DHT22;22228;53.222;7.446;2023-05-10T11:16:15;13.60;99.90
36186;DHT22;22228;53.222;7.446;2023-05-10T11:18:36;13.70;99.90
36186;DHT22;22228;53.222;7.446;2023-05-10T11:20:58;13.80;99.90
36186;DHT22;22228;53.222;7.446;2023-05-10T11:23:21;13.70;99.90
36186;DHT22;22228;53.222;7.446;2023-05-10T11:25:42;13.70;99.90
36186;DHT22;22228;53.222;7.446;2023-05-10T11:28:04;13.80;99.90
36186;DHT22;22228;53.222;7.446;2023-05-10T11:30:27;13.90;99.90
36186;DHT22;22228;53.222;7.446;2023-05-10T11:32:47;13.90;99.90
36186;DHT22;22228;53.222;7.446;2023-05-10T11:35:09;13.90;99.90
36186;DHT22;22228;53.222;7.446;2023-05-10T11:37:29;13.90;99.90
36186;DHT22;22228;53.222;7.446;2023-05-10T11:39:54;13.80;99.90
36186;DHT22;22228;53.222;7.446;2023-05-10T11:42:15;13.80;99.90
36186;DHT22;22228;53.222;7.446;2023-05-10T11:44:35;13.70;99.90
36186;DHT22;22228;53.222;7.446;2023-05-10T11:47:08;13.60;99.90
36186;DHT22;22228;53.222;7.446;2023-05-10T11:49:29;13.60;99.90
36186;DHT22;22228;53.222;7.446;2023-05-10T11:51:49;13.50;99.90
36186;DHT22;22228;53.222;7.446;2023-05-10T11:54:11;13.40;99.90
36186;DHT22;22228;53.222;7.446;2023-05-10T11:56:32;13.30;99.90
36186;DHT22;22228;53.222;7.446;2023-05-10T11:59:14;13.30;99.90
36186;DHT22;22228;53.222;7.446;2023-05-10T12:01:35;13.50;99.90
36186;DHT22;22228;53.222;7.446;2023-05-10T12:03:58;13.60;99.90
36186;DHT22;22228;53.222;7.446;2023-05-10T12:06:19;13.90;99.90
36186;DHT22;22228;53.222;7.446;2023-05-10T12:08:44;14.30;99.90
36186;DHT22;22228;53.222;7.446;2023-05-10T12:11:15;14.50;99.90
36186;DHT22;22228;53.222;7.446;2023-05-10T12:13:38;14.40;99.90
36186;DHT22;22228;53.222;7.446;2023-05-10T12:15:59;14.40;99.90
36186;DHT22;22228;53.222;7.446;2023-05-10T12:18:32;14.40;99.90
36186;DHT22;22228;53.222;7.446;2023-05-10T12:20:54;14.20;99.90
36186;DHT22;22228;53.222;7.446;2023-05-10T12:23:14;14.20;99.90
36186;DHT22;22228;53.222;7.446;2023-05-10T12:25:36;14.20;99.90
36186;DHT22;22228;53.222;7.446;2023-05-10T12:27:58;14.20;99.90
36186;DHT22;22228;53.222;7.446;2023-05-10T12:30:21;14.20;99.90
36186;DHT22;22228;53.222;7.446;2023-05-10T12:32:44;14.30;99.90
36186;DHT22;22228;53.222;7.446;2023-05-10T12:35:04;14.30;99.90
36186;DHT22;22228;53.222;7.446;2023-05-10T12:37:29;14.20;99.90
36186;DHT22;22228;53.222;7.446;2023-05-10T12:39:49;14.20;99.90
36186;DHT22;22228;53.222;7.446;2023-05-10T12:42:10;14.20;99.90
36186;DHT22;22228;53.222;7.446;2023-05-10T12:44:31;14.40;99.90
36186;DHT22;22228;53.222;7.446;2023-05-10T12:46:51;14.60;99.90
36186;DHT22;22228;53.222;7.446;2023-05-10T12:49:12;14.80;99.90
36186;DHT22;22228;53.222;7.446;2023-05-10T12:51:32;14.90;99.90
36186;DHT22;22228;53.222;7.446;2023-05-10T12:53:54;15.00;99.90
36186;DHT22;22228;53.222;7.446;2023-05-10T12:56:14;15.10;99.90
36186;DHT22;22228;53.222;7.446;2023-05-10T12:58:35;15.30;99.90
36186;DHT22;22228;53.222;7.446;2023-05-10T13:00:57;15.50;99.90
36186;DHT22;22228;53.222;7.446;2023-05-10T13:03:17;15.50;99.90
36186;DHT22;22228;53.222;7.446;2023-05-10T13:05:38;15.40;99.90
36186;DHT22;22228;53.222;7.446;2023-05-10T13:07:59;15.30;99.90
36186;DHT22;22228;53.222;7.446;2023-05-10T13:10:21;15.40;99.90
36186;DHT22;22228;53.222;7.446;2023-05-10T13:12:42;15.30;99.90
36186;DHT22;22228;53.222;7.446;2023-05-10T13:15:04;15.20;99.90
36186;DHT22;22228;53.222;7.446;2023-05-10T13:17:25;15.10;99.90
36186;DHT22;22228;53.222;7.446;2023-05-10T13:19:46;15.10;99.90
36186;DHT22;22228;53.222;7.446;2023-05-10T13:22:07;15.00;99.90
36186;DHT22;22228;53.222;7.446;2023-05-10T13:24:27;14.90;99.90
36186;DHT22;22228;53.222;7.446;2023-05-10T13:26:49;14.80;99.90
36186;DHT22;22228;53.222;7.446;2023-05-10T13:29:10;14.80;99.90
36186;DHT22;22228;53.222;7.446;2023-05-10T13:31:31;14.80;99.90
36186;DHT22;22228;53.222;7.446;2023-05-10T13:33:51;14.90;99.90
36186;DHT22;22228;53.222;7.446;2023-05-10T13:36:12;14.90;99.90
36186;DHT22;22228;53.222;7.446;2023-05-10T13:38:32;14.90;99.90
36186;DHT22;22228;53.222;7.446;2023-05-10T13:40:52;14.90;99.90
36186;DHT22;22228;53.222;7.446;2023-05-10T13:43:16;15.00;99.90
36186;DHT22;22228;53.222;7.446;2023-05-10T13:45:36;15.10;99.90
36186;DHT22;22228;53.222;7.446;2023-05-10T13:47:57;15.20;99.90
36186;DHT22;22228;53.222;7.446;2023-05-10T13:50:17;15.40;99.90
36186;DHT22;22228;53.222;7.446;2023-05-10T13:52:38;15.40;99.90
36186;DHT22;22228;53.222;7.446;2023-05-10T13:54:58;15.40;99.90
36186;DHT22;22228;53.222;7.446;2023-05-10T13:57:19;15.60;99.90
36186;DHT22;22228;53.222;7.446;2023-05-10T13:59:40;15.60;99.90
36186;DHT22;22228;53.222;7.446;2023-05-10T14:02:01;15.60;99.90
36186;DHT22;22228;53.222;7.446;2023-05-10T14:04:21;15.70;99.90
36186;DHT22;22228;53.222;7.446;2023-05-10T14:06:42;15.80;99.90
36186;DHT22;22228;53.222;7.446;2023-05-10T14:09:03;16.00;99.90
36186;DHT22;22228;53.222;7.446;2023-05-10T14:11:23;16.10;99.90
36186;DHT22;22228;53.222;7.446;2023-05-10T14:13:44;16.10;99.90
36186;DHT22;22228;53.222;7.446;2023-05-10T14:16:06;15.90;99.90
36186;DHT22;22228;53.222;7.446;2023-05-10T14:18:26;15.70;99.90
36186;DHT22;22228;53.222;7.446;2023-05-10T14:20:47;15.60;99.90
36186;DHT22;22228;53.222;7.446;2023-05-10T14:23:07;15.40;99.90
36186;DHT22;22228;53.222;7.446;2023-05-10T14:25:28;15.30;99.90
36186;DHT22;22228;53.222;7.446;2023-05-10T14:27:49;15.20;99.90
36186;DHT22;22228;53.222;7.446;2023-05-10T14:30:11;15.20;99.90
36186;DHT22;22228;53.222;7.446;2023-05-10T14:32:33;15.30;99.90
36186;DHT22;22228;53.222;7.446;2023-05-10T14:34:55;15.30;99.90
36186;DHT22;22228;53.222;7.446;2023-05-10T14:37:16;15.40;99.90
36186;DHT22;22228;53.222;7.446;2023-05-10T14:39:36;15.40;99.90
36186;DHT22;22228;53.222;7.446;2023-05-10T14:41:57;15.40;99.90
36186;DHT22;22228;53.222;7.446;2023-05-10T14:44:17;15.50;99.90
36186;DHT22;22228;53.222;7.446;2023-05-10T14:46:37;15.40;99.90
36186;DHT22;22228;53.222;7.446;2023-05-10T14:48:59;15.40;99.90
36186;DHT22;22228;53.222;7.446;2023-05-10T14:51:19;15.30;99.90
36186;DHT22;22228;53.222;7.446;2023-05-10T14:53:40;15.20;99.90
36186;DHT22;22228;53.222;7.446;2023-05-10T14:56:01;15.10;99.90
36186;DHT22;22228;53.222;7.446;2023-05-10T14:58:22;15.00;99.90
36186;DHT22;22228;53.222;7.446;2023-05-10T15:00:42;15.00;99.90
36186;DHT22;22228;53.222;7.446;2023-05-10T15:03:03;14.90;99.90
36186;DHT22;22228;53.222;7.446;2023-05-10T15:05:24;15.00;99.90
36186;DHT22;22228;53.222;7.446;2023-05-10T15:07:45;15.10;99.90
36186;DHT22;22228;53.222;7.446;2023-05-10T15:10:09;15.20;99.90
36186;DHT22;22228;53.222;7.446;2023-05-10T15:12:30;15.30;99.90
36186;DHT22;22228;53.222;7.446;2023-05-10T15:14:50;15.60;99.90
36186;DHT22;22228;53.222;7.446;2023-05-10T15:17:11;15.80;99.90
36186;DHT22;22228;53.222;7.446;2023-05-10T15:19:32;16.10;99.90
36186;DHT22;22228;53.222;7.446;2023-05-10T15:21:54;16.30;99.90
36186;DHT22;22228;53.222;7.446;2023-05-10T15:24:14;16.40;99.90
36186;DHT22;22228;53.222;7.446;2023-05-10T15:26:35;16.80;99.90
36186;DHT22;22228;53.222;7.446;2023-05-10T15:28:56;16.80;99.90
36186;DHT22;22228;53.222;7.446;2023-05-10T15:31:16;16.80;99.90
36186;DHT22;22228;53.222;7.446;2023-05-10T15:33:37;16.80;99.90
36186;DHT22;22228;53.222;7.446;2023-05-10T15:35:58;16.80;99.90
36186;DHT22;22228;53.222;7.446;2023-05-10T15:38:20;16.70;99.90
36186;DHT22;22228;53.222;7.446;2023-05-10T15:40:41;16.60;99.90
36186;DHT22;22228;53.222;7.446;2023-05-10T15:43:02;16.50;99.90
36186;DHT22;22228;53.222;7.446;2023-05-10T15:45:22;16.30;99.90
36186;DHT22;22228;53.222;7.446;2023-05-10T15:47:43;16.30;99.90
36186;DHT22;22228;53.222;7.446;2023-05-10T15:50:05;16.20;99.90
36186;DHT22;22228;53.222;7.446;2023-05-10T15:52:26;16.30;99.90
36186;DHT22;22228;53.222;7.446;2023-05-10T15:54:47;16.50;99.90
36186;DHT22;22228;53.222;7.446;2023-05-10T15:57:08;16.30;99.90
36186;DHT22;22228;53.222;7.446;2023-05-10T15:59:28;16.40;99.90
36186;DHT22;22228;53.222;7.446;2023-05-10T16:01:49;16.40;99.90
36186;DHT22;22228;53.222;7.446;2023-05-10T16:04:10;16.30;99.90
36186;DHT22;22228;53.222;7.446;2023-05-10T16:06:30;16.30;99.90
36186;DHT22;22228;53.222;7.446;2023-05-10T16:08:51;16.30;99.90
36186;DHT22;22228;53.222;7.446;2023-05-10T16:11:13;16.50;99.90
36186;DHT22;22228;53.222;7.446;2023-05-10T16:13:33;16.70;99.90
36186;DHT22;22228;53.222;7.446;2023-05-10T16:15:54;16.70;99.90
36186;DHT22;22228;53.222;7.446;2023-05-10T16:18:15;16.70;99.90
36186;DHT22;22228;53.222;7.446;2023-05-10T16:20:36;16.50;99.90
36186;DHT22;22228;53.222;7.446;2023-05-10T16:22:57;16.40;99.90
36186;DHT22;22228;53.222;7.446;2023-05-10T16:25:18;16.30;99.90
36186;DHT22;22228;53.222;7.446;2023-05-10T16:27:39;16.20;99.90
36186;DHT22;22228;53.222;7.446;2023-05-10T16:30:01;16.10;99.90
36186;DHT22;22228;53.222;7.446;2023-05-10T16:32:21;16.00;99.90
36186;DHT22;22228;53.222;7.446;2023-05-10T16:34:42;16.00;99.90
36186;DHT22;22228;53.222;7.446;2023-05-10T16:37:02;15.80;99.90
36186;DHT22;22228;53.222;7.446;2023-05-10T16:39:22;15.90;99.90
36186;DHT22;22228;53.222;7.446;2023-05-10T16:41:43;15.80;99.90
36186;DHT22;22228;53.222;7.446;2023-05-10T16:44:05;15.80;99.90
36186;DHT22;22228;53.222;7.446;2023-05-10T16:46:25;15.80;99.90
36186;DHT22;22228;53.222;7.446;2023-05-10T16:48:46;15.50;99.90
36186;DHT22;22228;53.222;7.446;2023-05-10T16:51:06;15.50;99.90
36186;DHT22;22228;53.222;7.446;2023-05-10T16:53:27;15.40;99.90
36186;DHT22;22228;53.222;7.446;2023-05-10T16:55:47;15.30;99.90
36186;DHT22;22228;53.222;7.446;2023-05-10T16:58:07;15.40;99.90
36186;DHT22;22228;53.222;7.446;2023-05-10T17:00:29;15.40;99.90
36186;DHT22;22228;53.222;7.446;2023-05-10T17:02:50;15.30;99.90
36186;DHT22;22228;53.222;7.446;2023-05-10T17:05:11;15.30;99.90
36186;DHT22;22228;53.222;7.446;2023-05-10T17:07:32;15.30;99.90
36186;DHT22;22228;53.222;7.446;2023-05-10T17:09:52;15.20;99.90
36186;DHT22;22228;53.222;7.446;2023-05-10T17:12:13;15.20;99.90
36186;DHT22;22228;53.222;7.446;2023-05-10T17:14:41;15.20;99.90
36186;DHT22;22228;53.222;7.446;2023-05-10T17:17:04;15.10;99.90
36186;DHT22;22228;53.222;7.446;2023-05-10T17:19:25;15.10;99.90
36186;DHT22;22228;53.222;7.446;2023-05-10T17:21:46;14.90;99.90
36186;DHT22;22228;53.222;7.446;2023-05-10T17:24:07;14.80;99.90
36186;DHT22;22228;53.222;7.446;2023-05-10T17:26:28;14.80;99.90
36186;DHT22;22228;53.222;7.446;2023-05-10T17:28:48;14.80;99.90
36186;DHT22;22228;53.222;7.446;2023-05-10T17:31:09;14.80;99.90
36186;DHT22;22228;53.222;7.446;2023-05-10T17:33:31;14.70;99.90
36186;DHT22;22228;53.222;7.446;2023-05-10T17:35:51;14.70;99.90
36186;DHT22;22228;53.222;7.446;2023-05-10T17:38:15;14.60;99.90
36186;DHT22;22228;53.222;7.446;2023-05-10T17:40:39;14.60;99.90
36186;DHT22;22228;53.222;7.446;2023-05-10T17:42:59;14.60;99.90
36186;DHT22;22228;53.222;7.446;2023-05-10T17:45:20;14.60;99.90
36186;DHT22;22228;53.222;7.446;2023-05-10T17:47:40;14.40;99.90
36186;DHT22;22228;53.222;7.446;2023-05-10T17:50:04;14.30;99.90
36186;DHT22;22228;53.222;7.446;2023-05-10T17:52:24;14.20;99.90
36186;DHT22;22228;53.222;7.446;2023-05-10T17:54:45;14.20;99.90
36186;DHT22;22228;53.222;7.446;2023-05-10T17:57:06;14.10;99.90
36186;DHT22;22228;53.222;7.446;2023-05-10T17:59:26;14.10;99.90
36186;DHT22;22228;53.222;7.446;2023-05-10T18:01:47;14.10;99.90
36186;DHT22;22228;53.222;7.446;2023-05-10T18:04:07;14.10;99.90
36186;DHT22;22228;53.222;7.446;2023-05-10T18:06:29;14.10;99.90